sensor_id;sensor_type;location;lat;lon;timestamp;temperature;humidity
21353;DHT22;10834;52.268;6.770;2023-07-20T00:01:51;16.60;99.90
21353;DHT22;10834;52.268;6.770;2023-07-20T00:04:37;16.60;99.90
21353;DHT22;10834;52.268;6.770;2023-07-20T00:07:23;16.50;99.90
21353;DHT22;10834;52.268;6.770;2023-07-20T00:10:10;16.40;99.90
21353;DHT22;10834;52.268;6.770;2023-07-20T00:12:56;16.40;99.90
21353;DHT22;10834;52.268;6.770;2023-07-20T00:15:42;16.30;99.90
21353;DHT22;10834;52.268;6.770;2023-07-20T00:18:29;16.30;99.90
21353;DHT22;10834;52.268;6.770;2023-07-20T00:21:15;16.30;99.90
21353;DHT22;10834;52.268;6.770;2023-07-20T00:24:01;16.20;99.90
21353;DHT22;10834;52.268;6.770;2023-07-20T00:26:47;16.20;99.90
21353;DHT22;10834;52.268;6.770;2023-07-20T00:29:33;16.10;99.90
21353;DHT22;10834;52.268;6.770;2023-07-20T00:32:19;16.10;99.90
21353;DHT22;10834;52.268;6.770;2023-07-20T00:35:06;16.00;99.90
21353;DHT22;10834;52.268;6.770;2023-07-20T00:37:52;16.00;99.90
21353;DHT22;10834;52.268;6.770;2023-07-20T00:40:38;16.00;99.90
21353;DHT22;10834;52.268;6.770;2023-07-20T00:43:24;15.90;99.90
21353;DHT22;10834;52.268;6.770;2023-07-20T00:46:11;16.00;99.90
21353;DHT22;10834;52.268;6.770;2023-07-20T00:48:57;16.00;99.90
21353;DHT22;10834;52.268;6.770;2023-07-20T00:51:43;15.90;99.90
21353;DHT22;10834;52.268;6.770;2023-07-20T00:54:30;15.90;99.90
21353;DHT22;10834;52.268;6.770;2023-07-20T00:57:17;15.90;99.90
21353;DHT22;10834;52.268;6.770;2023-07-20T01:00:05;15.90;99.90
21353;DHT22;10834;52.268;6.770;2023-07-20T01:02:52;15.90;99.90
21353;DHT22;10834;52.268;6.770;2023-07-20T01:08:47;15.90;99.90
21353;DHT22;10834;52.268;6.770;2023-07-20T01:11:47;15.90;99.90
21353;DHT22;10834;52.268;6.770;2023-07-20T01:14:35;15.90;99.90
21353;DHT22;10834;52.268;6.770;2023-07-20T01:17:22;15.90;99.90
21353;DHT22;10834;52.268;6.770;2023-07-20T01:20:13;15.90;99.90
21353;DHT22;10834;52.268;6.770;2023-07-20T01:26:38;15.80;99.90
21353;DHT22;10834;52.268;6.770;2023-07-20T01:32:47;15.70;99.90
21353;DHT22;10834;52.268;6.770;2023-07-20T01:35:34;15.70;99.90
21353;DHT22;10834;52.268;6.770;2023-07-20T01:38:22;15.60;99.90
21353;DHT22;10834;52.268;6.770;2023-07-20T01:41:09;15.60;99.90
21353;DHT22;10834;52.268;6.770;2023-07-20T01:43:59;15.60;99.90
21353;DHT22;10834;52.268;6.770;2023-07-20T01:46:45;15.40;99.90
21353;DHT22;10834;52.268;6.770;2023-07-20T01:49:31;15.40;99.90
21353;DHT22;10834;52.268;6.770;2023-07-20T01:52:17;15.30;99.90
21353;DHT22;10834;52.268;6.770;2023-07-20T01:55:04;15.30;99.90
21353;DHT22;10834;52.268;6.770;2023-07-20T01:57:50;15.30;99.90
21353;DHT22;10834;52.268;6.770;2023-07-20T02:00:38;15.20;99.90
21353;DHT22;10834;52.268;6.770;2023-07-20T02:03:25;15.20;99.90
21353;DHT22;10834;52.268;6.770;2023-07-20T02:06:12;15.30;99.90
21353;DHT22;10834;52.268;6.770;2023-07-20T02:08:58;15.30;99.90
21353;DHT22;10834;52.268;6.770;2023-07-20T02:11:44;15.30;99.90
21353;DHT22;10834;52.268;6.770;2023-07-20T02:14:30;15.30;99.90
21353;DHT22;10834;52.268;6.770;2023-07-20T02:17:17;15.30;99.90
21353;DHT22;10834;52.268;6.770;2023-07-20T02:20:03;15.30;99.90
21353;DHT22;10834;52.268;6.770;2023-07-20T02:22:49;15.20;99.90
21353;DHT22;10834;52.268;6.770;2023-07-20T02:25:35;15.30;99.90
21353;DHT22;10834;52.268;6.770;2023-07-20T02:28:21;15.20;99.90
21353;DHT22;10834;52.268;6.770;2023-07-20T02:31:07;15.30;99.90
21353;DHT22;10834;52.268;6.770;2023-07-20T02:33:53;15.30;99.90
21353;DHT22;10834;52.268;6.770;2023-07-20T02:36:39;15.30;99.90
21353;DHT22;10834;52.268;6.770;2023-07-20T02:39:28;15.20;99.90
21353;DHT22;10834;52.268;6.770;2023-07-20T02:42:14;15.20;99.90
21353;DHT22;10834;52.268;6.770;2023-07-20T02:45:01;15.20;99.90
21353;DHT22;10834;52.268;6.770;2023-07-20T02:47:47;15.20;99.90
21353;DHT22;10834;52.268;6.770;2023-07-20T02:50:33;15.20;99.90
21353;DHT22;10834;52.268;6.770;2023-07-20T02:53:20;15.20;99.90
21353;DHT22;10834;52.268;6.770;2023-07-20T02:56:06;15.20;99.90
21353;DHT22;10834;52.268;6.770;2023-07-20T02:58:52;15.20;99.90
21353;DHT22;10834;52.268;6.770;2023-07-20T03:01:38;15.20;99.90
21353;DHT22;10834;52.268;6.770;2023-07-20T03:04:27;15.20;99.90
21353;DHT22;10834;52.268;6.770;2023-07-20T03:07:13;15.20;99.90
21353;DHT22;10834;52.268;6.770;2023-07-20T03:10:00;15.20;99.90
21353;DHT22;10834;52.268;6.770;2023-07-20T03:12:46;15.20;99.90
21353;DHT22;10834;52.268;6.770;2023-07-20T03:15:32;15.20;99.90
21353;DHT22;10834;52.268;6.770;2023-07-20T03:18:18;15.10;99.90
21353;DHT22;10834;52.268;6.770;2023-07-20T03:21:05;15.00;99.90
21353;DHT22;10834;52.268;6.770;2023-07-20T03:23:51;15.00;99.90
21353;DHT22;10834;52.268;6.770;2023-07-20T03:26:37;14.90;99.90
21353;DHT22;10834;52.268;6.770;2023-07-20T03:29:23;14.80;99.90
21353;DHT22;10834;52.268;6.770;2023-07-20T03:32:10;14.80;99.90
21353;DHT22;10834;52.268;6.770;2023-07-20T03:34:56;14.70;99.90
21353;DHT22;10834;52.268;6.770;2023-07-20T03:37:42;14.70;99.90
21353;DHT22;10834;52.268;6.770;2023-07-20T03:40:29;14.60;99.90
21353;DHT22;10834;52.268;6.770;2023-07-20T03:43:15;14.50;99.90
21353;DHT22;10834;52.268;6.770;2023-07-20T03:46:01;14.50;99.90
21353;DHT22;10834;52.268;6.770;2023-07-20T03:48:52;14.40;99.90
21353;DHT22;10834;52.268;6.770;2023-07-20T03:51:38;14.40;99.90
21353;DHT22;10834;52.268;6.770;2023-07-20T03:54:24;14.40;99.90
21353;DHT22;10834;52.268;6.770;2023-07-20T03:57:10;14.40;99.90
21353;DHT22;10834;52.268;6.770;2023-07-20T03:59:56;14.40;99.90
21353;DHT22;10834;52.268;6.770;2023-07-20T04:02:43;14.40;99.90
21353;DHT22;10834;52.268;6.770;2023-07-20T04:05:29;14.40;99.90
21353;DHT22;10834;52.268;6.770;2023-07-20T04:08:15;14.50;99.90
21353;DHT22;10834;52.268;6.770;2023-07-20T04:11:04;14.50;99.90
21353;DHT22;10834;52.268;6.770;2023-07-20T04:13:50;14.60;99.90
21353;DHT22;10834;52.268;6.770;2023-07-20T04:16:36;14.60;99.90
21353;DHT22;10834;52.268;6.770;2023-07-20T04:19:23;14.60;99.90
21353;DHT22;10834;52.268;6.770;2023-07-20T04:22:09;14.60;99.90
21353;DHT22;10834;52.268;6.770;2023-07-20T04:24:55;14.70;99.90
21353;DHT22;10834;52.268;6.770;2023-07-20T04:27:41;14.70;99.90
21353;DHT22;10834;52.268;6.770;2023-07-20T04:30:27;14.70;99.90
21353;DHT22;10834;52.268;6.770;2023-07-20T04:33:14;14.70;99.90
21353;DHT22;10834;52.268;6.770;2023-07-20T04:36:00;14.70;99.90
21353;DHT22;10834;52.268;6.770;2023-07-20T04:38:46;14.70;99.90
21353;DHT22;10834;52.268;6.770;2023-07-20T04:41:32;14.70;99.90
21353;DHT22;10834;52.268;6.770;2023-07-20T04:44:18;14.70;99.90
21353;DHT22;10834;52.268;6.770;2023-07-20T04:47:04;14.70;99.90
21353;DHT22;10834;52.268;6.770;2023-07-20T04:49:51;14.70;99.90
21353;DHT22;10834;52.268;6.770;2023-07-20T04:52:37;14.70;99.90
21353;DHT22;10834;52.268;6.770;2023-07-20T04:55:23;14.70;99.90
21353;DHT22;10834;52.268;6.770;2023-07-20T04:58:09;14.70;99.90
21353;DHT22;10834;52.268;6.770;2023-07-20T05:00:55;14.60;99.90
21353;DHT22;10834;52.268;6.770;2023-07-20T05:03:41;14.60;99.90
21353;DHT22;10834;52.268;6.770;2023-07-20T05:06:27;14.50;99.90
21353;DHT22;10834;52.268;6.770;2023-07-20T05:09:13;14.50;99.90
21353;DHT22;10834;52.268;6.770;2023-07-20T05:11:59;14.50;99.90
21353;DHT22;10834;52.268;6.770;2023-07-20T05:14:45;14.50;99.90
21353;DHT22;10834;52.268;6.770;2023-07-20T05:17:31;14.40;99.90
21353;DHT22;10834;52.268;6.770;2023-07-20T05:20:17;14.40;99.90
21353;DHT22;10834;52.268;6.770;2023-07-20T05:23:03;14.40;99.90
21353;DHT22;10834;52.268;6.770;2023-07-20T05:26:00;14.40;99.90
21353;DHT22;10834;52.268;6.770;2023-07-20T05:28:46;14.40;99.90
21353;DHT22;10834;52.268;6.770;2023-07-20T05:31:32;14.40;99.90
21353;DHT22;10834;52.268;6.770;2023-07-20T05:34:18;14.40;99.90
21353;DHT22;10834;52.268;6.770;2023-07-20T05:37:05;14.50;99.90
21353;DHT22;10834;52.268;6.770;2023-07-20T05:39:51;14.50;99.90
21353;DHT22;10834;52.268;6.770;2023-07-20T05:42:38;14.60;99.90
21353;DHT22;10834;52.268;6.770;2023-07-20T05:45:25;14.60;99.90
21353;DHT22;10834;52.268;6.770;2023-07-20T05:48:11;14.60;99.90
21353;DHT22;10834;52.268;6.770;2023-07-20T05:50:57;14.70;99.90
21353;DHT22;10834;52.268;6.770;2023-07-20T05:53:43;14.70;99.90
21353;DHT22;10834;52.268;6.770;2023-07-20T05:56:29;14.80;99.90
21353;DHT22;10834;52.268;6.770;2023-07-20T05:59:15;14.80;99.90
21353;DHT22;10834;52.268;6.770;2023-07-20T06:02:02;14.90;99.90
21353;DHT22;10834;52.268;6.770;2023-07-20T06:04:48;15.00;99.90
21353;DHT22;10834;52.268;6.770;2023-07-20T06:07:34;15.10;99.90
21353;DHT22;10834;52.268;6.770;2023-07-20T06:10:20;15.10;99.90
21353;DHT22;10834;52.268;6.770;2023-07-20T06:13:06;15.40;99.90
21353;DHT22;10834;52.268;6.770;2023-07-20T06:15:52;16.30;99.90
21353;DHT22;10834;52.268;6.770;2023-07-20T06:18:39;17.80;99.90
21353;DHT22;10834;52.268;6.770;2023-07-20T06:21:25;20.30;99.90
21353;DHT22;10834;52.268;6.770;2023-07-20T06:24:11;23.00;99.90
21353;DHT22;10834;52.268;6.770;2023-07-20T06:26:57;23.00;99.90
21353;DHT22;10834;52.268;6.770;2023-07-20T06:29:43;22.40;99.90
21353;DHT22;10834;52.268;6.770;2023-07-20T06:32:29;21.40;99.90
21353;DHT22;10834;52.268;6.770;2023-07-20T06:35:15;20.80;99.90
21353;DHT22;10834;52.268;6.770;2023-07-20T06:38:02;20.90;99.90
21353;DHT22;10834;52.268;6.770;2023-07-20T06:40:50;21.10;99.90
21353;DHT22;10834;52.268;6.770;2023-07-20T06:43:36;21.90;99.90
21353;DHT22;10834;52.268;6.770;2023-07-20T06:46:23;22.60;99.90
21353;DHT22;10834;52.268;6.770;2023-07-20T06:49:09;23.60;99.90
21353;DHT22;10834;52.268;6.770;2023-07-20T06:51:55;25.50;99.90
21353;DHT22;10834;52.268;6.770;2023-07-20T06:54:41;25.90;99.90
21353;DHT22;10834;52.268;6.770;2023-07-20T06:57:27;25.80;98.60
21353;DHT22;10834;52.268;6.770;2023-07-20T07:00:13;26.10;96.70
21353;DHT22;10834;52.268;6.770;2023-07-20T07:03:00;27.40;90.90
21353;DHT22;10834;52.268;6.770;2023-07-20T07:05:46;25.40;91.80
21353;DHT22;10834;52.268;6.770;2023-07-20T07:08:32;24.50;96.20
21353;DHT22;10834;52.268;6.770;2023-07-20T07:11:18;23.80;99.30
21353;DHT22;10834;52.268;6.770;2023-07-20T07:14:05;23.10;99.90
21353;DHT22;10834;52.268;6.770;2023-07-20T07:16:51;22.80;99.90
21353;DHT22;10834;52.268;6.770;2023-07-20T07:19:37;22.50;99.90
21353;DHT22;10834;52.268;6.770;2023-07-20T07:22:24;22.50;99.90
21353;DHT22;10834;52.268;6.770;2023-07-20T07:25:11;23.50;99.90
21353;DHT22;10834;52.268;6.770;2023-07-20T07:27:58;25.50;99.90
21353;DHT22;10834;52.268;6.770;2023-07-20T07:30:44;27.30;91.60
21353;DHT22;10834;52.268;6.770;2023-07-20T07:33:30;28.80;79.60
21353;DHT22;10834;52.268;6.770;2023-07-20T07:36:16;29.40;71.40
21353;DHT22;10834;52.268;6.770;2023-07-20T07:39:02;27.80;69.10
21353;DHT22;10834;52.268;6.770;2023-07-20T07:41:49;28.90;71.20
21353;DHT22;10834;52.268;6.770;2023-07-20T07:44:35;28.60;68.90
21353;DHT22;10834;52.268;6.770;2023-07-20T07:47:22;28.00;69.10
21353;DHT22;10834;52.268;6.770;2023-07-20T07:50:08;27.20;70.80
21353;DHT22;10834;52.268;6.770;2023-07-20T07:52:54;26.40;72.80
21353;DHT22;10834;52.268;6.770;2023-07-20T07:55:40;26.10;73.60
21353;DHT22;10834;52.268;6.770;2023-07-20T07:58:27;26.60;74.50
21353;DHT22;10834;52.268;6.770;2023-07-20T08:01:13;26.90;73.70
21353;DHT22;10834;52.268;6.770;2023-07-20T08:03:59;26.90;72.00
21353;DHT22;10834;52.268;6.770;2023-07-20T08:06:45;26.10;73.90
21353;DHT22;10834;52.268;6.770;2023-07-20T08:09:31;25.00;77.40
21353;DHT22;10834;52.268;6.770;2023-07-20T08:12:17;25.40;81.70
21353;DHT22;10834;52.268;6.770;2023-07-20T08:15:05;27.30;77.90
21353;DHT22;10834;52.268;6.770;2023-07-20T08:17:52;27.60;74.70
21353;DHT22;10834;52.268;6.770;2023-07-20T08:20:38;27.20;72.20
21353;DHT22;10834;52.268;6.770;2023-07-20T08:23:24;26.00;73.60
21353;DHT22;10834;52.268;6.770;2023-07-20T08:26:10;24.80;79.50
21353;DHT22;10834;52.268;6.770;2023-07-20T08:28:56;23.80;84.40
21353;DHT22;10834;52.268;6.770;2023-07-20T08:31:42;25.60;84.90
21353;DHT22;10834;52.268;6.770;2023-07-20T08:34:28;28.90;73.60
21353;DHT22;10834;52.268;6.770;2023-07-20T08:37:14;29.80;65.60
21353;DHT22;10834;52.268;6.770;2023-07-20T08:40:01;27.90;66.40
21353;DHT22;10834;52.268;6.770;2023-07-20T08:42:47;26.40;72.40
21353;DHT22;10834;52.268;6.770;2023-07-20T08:45:34;25.40;76.80
21353;DHT22;10834;52.268;6.770;2023-07-20T08:48:22;24.30;82.30
21353;DHT22;10834;52.268;6.770;2023-07-20T08:51:10;24.30;89.80
21353;DHT22;10834;52.268;6.770;2023-07-20T08:53:59;25.90;87.70
21353;DHT22;10834;52.268;6.770;2023-07-20T08:56:45;28.50;73.00
21353;DHT22;10834;52.268;6.770;2023-07-20T08:59:34;28.80;67.30
21353;DHT22;10834;52.268;6.770;2023-07-20T09:02:24;30.30;58.60
21353;DHT22;10834;52.268;6.770;2023-07-20T09:05:11;30.80;55.80
21353;DHT22;10834;52.268;6.770;2023-07-20T09:07:59;31.80;53.80
21353;DHT22;10834;52.268;6.770;2023-07-20T09:10:45;32.10;52.40
21353;DHT22;10834;52.268;6.770;2023-07-20T09:13:35;31.20;53.60
21353;DHT22;10834;52.268;6.770;2023-07-20T09:16:21;32.80;51.80
21353;DHT22;10834;52.268;6.770;2023-07-20T09:19:07;32.70;50.40
21353;DHT22;10834;52.268;6.770;2023-07-20T09:21:54;31.60;51.50
21353;DHT22;10834;52.268;6.770;2023-07-20T09:24:40;30.50;50.20
21353;DHT22;10834;52.268;6.770;2023-07-20T09:27:39;30.00;51.50
21353;DHT22;10834;52.268;6.770;2023-07-20T09:30:26;31.40;51.80
21353;DHT22;10834;52.268;6.770;2023-07-20T09:33:32;32.30;50.30
21353;DHT22;10834;52.268;6.770;2023-07-20T09:36:18;32.90;47.40
21353;DHT22;10834;52.268;6.770;2023-07-20T09:39:04;33.30;46.90
21353;DHT22;10834;52.268;6.770;2023-07-20T09:41:51;33.50;45.80
21353;DHT22;10834;52.268;6.770;2023-07-20T09:44:38;32.10;47.00
21353;DHT22;10834;52.268;6.770;2023-07-20T09:47:25;30.70;49.60
21353;DHT22;10834;52.268;6.770;2023-07-20T09:50:12;30.30;48.70
21353;DHT22;10834;52.268;6.770;2023-07-20T09:53:00;30.10;49.20
21353;DHT22;10834;52.268;6.770;2023-07-20T09:55:48;29.90;50.50
21353;DHT22;10834;52.268;6.770;2023-07-20T09:58:34;29.60;51.40
21353;DHT22;10834;52.268;6.770;2023-07-20T10:01:21;29.40;50.80
21353;DHT22;10834;52.268;6.770;2023-07-20T10:04:09;29.50;51.00
21353;DHT22;10834;52.268;6.770;2023-07-20T10:06:59;30.20;50.30
21353;DHT22;10834;52.268;6.770;2023-07-20T10:09:52;31.60;49.10
21353;DHT22;10834;52.268;6.770;2023-07-20T10:12:39;32.50;47.50
21353;DHT22;10834;52.268;6.770;2023-07-20T10:15:31;31.60;47.10
21353;DHT22;10834;52.268;6.770;2023-07-20T10:18:28;31.10;49.30
21353;DHT22;10834;52.268;6.770;2023-07-20T10:21:16;31.10;49.80
21353;DHT22;10834;52.268;6.770;2023-07-20T10:24:03;31.00;45.40
21353;DHT22;10834;52.268;6.770;2023-07-20T10:26:49;32.50;43.00
21353;DHT22;10834;52.268;6.770;2023-07-20T10:29:36;33.50;43.30
21353;DHT22;10834;52.268;6.770;2023-07-20T10:32:23;34.40;42.50
21353;DHT22;10834;52.268;6.770;2023-07-20T10:35:13;34.20;40.10
21353;DHT22;10834;52.268;6.770;2023-07-20T10:38:01;32.50;42.60
21353;DHT22;10834;52.268;6.770;2023-07-20T10:40:56;31.60;45.20
21353;DHT22;10834;52.268;6.770;2023-07-20T10:43:43;31.00;46.20
21353;DHT22;10834;52.268;6.770;2023-07-20T10:49:25;29.90;46.30
21353;DHT22;10834;52.268;6.770;2023-07-20T10:52:12;29.30;48.90
21353;DHT22;10834;52.268;6.770;2023-07-20T10:55:10;28.70;50.90
21353;DHT22;10834;52.268;6.770;2023-07-20T10:58:13;27.90;50.60
21353;DHT22;10834;52.268;6.770;2023-07-20T11:01:02;27.40;52.00
21353;DHT22;10834;52.268;6.770;2023-07-20T11:03:49;27.30;51.70
21353;DHT22;10834;52.268;6.770;2023-07-20T11:06:42;27.30;49.20
21353;DHT22;10834;52.268;6.770;2023-07-20T11:09:34;27.50;51.70
21353;DHT22;10834;52.268;6.770;2023-07-20T11:12:20;27.60;47.30
21353;DHT22;10834;52.268;6.770;2023-07-20T11:15:06;27.50;48.50
21353;DHT22;10834;52.268;6.770;2023-07-20T11:17:52;27.50;49.30
21353;DHT22;10834;52.268;6.770;2023-07-20T11:20:57;27.60;48.30
21353;DHT22;10834;52.268;6.770;2023-07-20T11:23:43;27.40;52.20
21353;DHT22;10834;52.268;6.770;2023-07-20T11:26:29;27.00;52.60
21353;DHT22;10834;52.268;6.770;2023-07-20T11:29:21;26.70;53.80
21353;DHT22;10834;52.268;6.770;2023-07-20T11:32:08;26.70;54.30
21353;DHT22;10834;52.268;6.770;2023-07-20T11:34:54;27.00;52.90
21353;DHT22;10834;52.268;6.770;2023-07-20T11:37:40;27.30;54.20
21353;DHT22;10834;52.268;6.770;2023-07-20T11:40:27;27.30;54.60
21353;DHT22;10834;52.268;6.770;2023-07-20T11:43:13;27.10;55.20
21353;DHT22;10834;52.268;6.770;2023-07-20T11:46:00;26.60;54.60
21353;DHT22;10834;52.268;6.770;2023-07-20T11:48:47;26.20;55.40
21353;DHT22;10834;52.268;6.770;2023-07-20T11:51:34;26.20;56.50
21353;DHT22;10834;52.268;6.770;2023-07-20T11:54:20;26.10;57.20
21353;DHT22;10834;52.268;6.770;2023-07-20T11:57:06;26.10;57.50
21353;DHT22;10834;52.268;6.770;2023-07-20T11:59:58;26.20;57.70
21353;DHT22;10834;52.268;6.770;2023-07-20T12:02:47;26.30;59.20
21353;DHT22;10834;52.268;6.770;2023-07-20T12:05:33;26.30;58.50
21353;DHT22;10834;52.268;6.770;2023-07-20T12:08:19;26.10;57.10
21353;DHT22;10834;52.268;6.770;2023-07-20T12:11:06;26.00;57.50
21353;DHT22;10834;52.268;6.770;2023-07-20T12:13:52;26.00;58.90
21353;DHT22;10834;52.268;6.770;2023-07-20T12:16:38;26.00;59.40
21353;DHT22;10834;52.268;6.770;2023-07-20T12:19:25;26.00;57.90
21353;DHT22;10834;52.268;6.770;2023-07-20T12:22:11;26.10;58.00
21353;DHT22;10834;52.268;6.770;2023-07-20T12:24:58;26.20;58.10
21353;DHT22;10834;52.268;6.770;2023-07-20T12:27:44;26.20;58.10
21353;DHT22;10834;52.268;6.770;2023-07-20T12:30:30;26.20;57.70
21353;DHT22;10834;52.268;6.770;2023-07-20T12:33:16;26.10;57.40
21353;DHT22;10834;52.268;6.770;2023-07-20T12:36:03;26.00;56.80
21353;DHT22;10834;52.268;6.770;2023-07-20T12:38:50;26.00;57.60
21353;DHT22;10834;52.268;6.770;2023-07-20T12:41:36;25.90;57.80
21353;DHT22;10834;52.268;6.770;2023-07-20T12:44:22;25.90;58.10
21353;DHT22;10834;52.268;6.770;2023-07-20T12:47:08;25.90;57.80
21353;DHT22;10834;52.268;6.770;2023-07-20T12:49:54;25.90;58.40
21353;DHT22;10834;52.268;6.770;2023-07-20T12:52:41;25.80;58.10
21353;DHT22;10834;52.268;6.770;2023-07-20T12:55:27;25.60;58.50
21353;DHT22;10834;52.268;6.770;2023-07-20T12:58:13;25.50;57.90
21353;DHT22;10834;52.268;6.770;2023-07-20T13:00:59;25.50;58.20
21353;DHT22;10834;52.268;6.770;2023-07-20T13:03:45;25.70;58.00
21353;DHT22;10834;52.268;6.770;2023-07-20T13:06:31;25.70;57.80
21353;DHT22;10834;52.268;6.770;2023-07-20T13:09:17;25.50;59.10
21353;DHT22;10834;52.268;6.770;2023-07-20T13:12:03;25.50;58.30
21353;DHT22;10834;52.268;6.770;2023-07-20T13:14:50;25.30;58.80
21353;DHT22;10834;52.268;6.770;2023-07-20T13:17:38;25.00;60.30
21353;DHT22;10834;52.268;6.770;2023-07-20T13:20:25;24.70;59.10
21353;DHT22;10834;52.268;6.770;2023-07-20T13:23:12;24.40;59.00
21353;DHT22;10834;52.268;6.770;2023-07-20T13:25:58;24.20;61.60
21353;DHT22;10834;52.268;6.770;2023-07-20T13:28:44;24.10;62.70
21353;DHT22;10834;52.268;6.770;2023-07-20T13:31:30;23.80;63.40
21353;DHT22;10834;52.268;6.770;2023-07-20T13:34:16;23.50;60.10
21353;DHT22;10834;52.268;6.770;2023-07-20T13:37:03;23.30;64.90
21353;DHT22;10834;52.268;6.770;2023-07-20T13:39:49;23.00;68.40
21353;DHT22;10834;52.268;6.770;2023-07-20T13:42:35;22.80;70.40
21353;DHT22;10834;52.268;6.770;2023-07-20T13:45:21;22.60;72.40
21353;DHT22;10834;52.268;6.770;2023-07-20T13:48:07;22.50;76.00
21353;DHT22;10834;52.268;6.770;2023-07-20T13:50:53;22.50;81.30
21353;DHT22;10834;52.268;6.770;2023-07-20T13:53:40;22.40;80.90
21353;DHT22;10834;52.268;6.770;2023-07-20T13:56:27;22.40;81.70
21353;DHT22;10834;52.268;6.770;2023-07-20T13:59:13;22.40;81.50
21353;DHT22;10834;52.268;6.770;2023-07-20T14:01:59;22.40;82.70
21353;DHT22;10834;52.268;6.770;2023-07-20T14:04:45;22.40;81.60
21353;DHT22;10834;52.268;6.770;2023-07-20T14:07:31;22.30;82.90
21353;DHT22;10834;52.268;6.770;2023-07-20T14:10:17;22.30;87.20
21353;DHT22;10834;52.268;6.770;2023-07-20T14:13:04;22.40;90.30
21353;DHT22;10834;52.268;6.770;2023-07-20T14:15:50;22.40;90.30
21353;DHT22;10834;52.268;6.770;2023-07-20T14:18:36;22.70;85.80
21353;DHT22;10834;52.268;6.770;2023-07-20T14:21:22;23.00;83.80
21353;DHT22;10834;52.268;6.770;2023-07-20T14:24:08;23.40;79.80
21353;DHT22;10834;52.268;6.770;2023-07-20T14:26:55;23.60;75.60
21353;DHT22;10834;52.268;6.770;2023-07-20T14:29:41;23.70;73.60
21353;DHT22;10834;52.268;6.770;2023-07-20T14:32:27;23.50;75.20
21353;DHT22;10834;52.268;6.770;2023-07-20T14:35:13;23.20;75.80
21353;DHT22;10834;52.268;6.770;2023-07-20T14:38:00;22.80;77.70
21353;DHT22;10834;52.268;6.770;2023-07-20T14:40:46;22.70;79.80
21353;DHT22;10834;52.268;6.770;2023-07-20T14:43:32;22.80;80.10
21353;DHT22;10834;52.268;6.770;2023-07-20T14:46:18;22.90;79.00
21353;DHT22;10834;52.268;6.770;2023-07-20T14:49:04;23.10;77.40
21353;DHT22;10834;52.268;6.770;2023-07-20T14:51:50;23.20;79.00
21353;DHT22;10834;52.268;6.770;2023-07-20T14:54:36;23.10;83.90
21353;DHT22;10834;52.268;6.770;2023-07-20T14:57:22;23.00;83.60
21353;DHT22;10834;52.268;6.770;2023-07-20T15:00:09;23.00;81.40
21353;DHT22;10834;52.268;6.770;2023-07-20T15:02:56;22.90;79.60
21353;DHT22;10834;52.268;6.770;2023-07-20T15:05:42;22.90;78.20
21353;DHT22;10834;52.268;6.770;2023-07-20T15:08:28;22.90;77.60
21353;DHT22;10834;52.268;6.770;2023-07-20T15:11:14;22.80;77.70
21353;DHT22;10834;52.268;6.770;2023-07-20T15:14:00;22.80;80.10
21353;DHT22;10834;52.268;6.770;2023-07-20T15:16:47;22.60;81.50
21353;DHT22;10834;52.268;6.770;2023-07-20T15:19:33;22.60;88.30
21353;DHT22;10834;52.268;6.770;2023-07-20T15:22:20;22.60;87.60
21353;DHT22;10834;52.268;6.770;2023-07-20T15:25:08;22.60;90.00
21353;DHT22;10834;52.268;6.770;2023-07-20T15:27:56;22.50;88.80
21353;DHT22;10834;52.268;6.770;2023-07-20T15:30:42;22.50;90.00
21353;DHT22;10834;52.268;6.770;2023-07-20T15:33:28;22.50;90.20
21353;DHT22;10834;52.268;6.770;2023-07-20T15:36:14;22.40;89.10
21353;DHT22;10834;52.268;6.770;2023-07-20T15:39:00;22.40;88.00
21353;DHT22;10834;52.268;6.770;2023-07-20T15:41:47;22.50;88.70
21353;DHT22;10834;52.268;6.770;2023-07-20T15:44:33;22.60;84.20
21353;DHT22;10834;52.268;6.770;2023-07-20T15:47:20;22.70;81.20
21353;DHT22;10834;52.268;6.770;2023-07-20T15:50:06;22.70;79.90
21353;DHT22;10834;52.268;6.770;2023-07-20T15:52:52;22.60;85.90
21353;DHT22;10834;52.268;6.770;2023-07-20T15:55:38;22.60;86.40
21353;DHT22;10834;52.268;6.770;2023-07-20T15:58:24;22.60;84.80
21353;DHT22;10834;52.268;6.770;2023-07-20T16:01:10;22.50;86.20
21353;DHT22;10834;52.268;6.770;2023-07-20T16:03:57;22.40;75.50
21353;DHT22;10834;52.268;6.770;2023-07-20T16:06:43;22.30;74.60
21353;DHT22;10834;52.268;6.770;2023-07-20T16:09:29;22.30;76.70
21353;DHT22;10834;52.268;6.770;2023-07-20T16:12:15;22.30;82.00
21353;DHT22;10834;52.268;6.770;2023-07-20T16:15:02;22.20;89.40
21353;DHT22;10834;52.268;6.770;2023-07-20T16:17:48;22.20;88.70
21353;DHT22;10834;52.268;6.770;2023-07-20T16:20:34;22.10;86.80
21353;DHT22;10834;52.268;6.770;2023-07-20T16:23:20;21.90;86.80
21353;DHT22;10834;52.268;6.770;2023-07-20T16:26:06;21.90;86.50
21353;DHT22;10834;52.268;6.770;2023-07-20T16:28:52;21.80;87.20
21353;DHT22;10834;52.268;6.770;2023-07-20T16:31:38;21.70;88.20
21353;DHT22;10834;52.268;6.770;2023-07-20T16:34:25;21.50;90.70
21353;DHT22;10834;52.268;6.770;2023-07-20T16:37:11;21.40;88.20
21353;DHT22;10834;52.268;6.770;2023-07-20T16:39:57;21.30;91.90
21353;DHT22;10834;52.268;6.770;2023-07-20T16:42:43;21.20;90.50
21353;DHT22;10834;52.268;6.770;2023-07-20T16:45:29;21.00;92.10
21353;DHT22;10834;52.268;6.770;2023-07-20T16:48:15;20.90;92.60
21353;DHT22;10834;52.268;6.770;2023-07-20T16:51:01;20.90;93.20
21353;DHT22;10834;52.268;6.770;2023-07-20T16:53:48;20.80;94.10
21353;DHT22;10834;52.268;6.770;2023-07-20T16:56:34;20.70;95.80
21353;DHT22;10834;52.268;6.770;2023-07-20T16:59:20;20.60;95.90
21353;DHT22;10834;52.268;6.770;2023-07-20T17:02:06;20.60;98.20
21353;DHT22;10834;52.268;6.770;2023-07-20T17:04:52;20.70;99.90
21353;DHT22;10834;52.268;6.770;2023-07-20T17:07:39;20.70;99.90
21353;DHT22;10834;52.268;6.770;2023-07-20T17:10:25;20.80;99.90
21353;DHT22;10834;52.268;6.770;2023-07-20T17:13:12;20.90;99.90
21353;DHT22;10834;52.268;6.770;2023-07-20T17:16:00;20.90;99.90
21353;DHT22;10834;52.268;6.770;2023-07-20T17:18:46;20.90;99.90
21353;DHT22;10834;52.268;6.770;2023-07-20T17:21:32;20.80;99.90
21353;DHT22;10834;52.268;6.770;2023-07-20T17:24:18;20.70;99.90
21353;DHT22;10834;52.268;6.770;2023-07-20T17:27:04;20.60;99.90
21353;DHT22;10834;52.268;6.770;2023-07-20T17:29:50;20.60;99.90
21353;DHT22;10834;52.268;6.770;2023-07-20T17:32:36;20.60;99.90
21353;DHT22;10834;52.268;6.770;2023-07-20T17:35:22;20.50;99.90
21353;DHT22;10834;52.268;6.770;2023-07-20T17:38:08;20.60;99.90
21353;DHT22;10834;52.268;6.770;2023-07-20T17:40:54;20.50;99.90
21353;DHT22;10834;52.268;6.770;2023-07-20T17:43:40;20.50;99.90
21353;DHT22;10834;52.268;6.770;2023-07-20T17:46:26;20.40;99.90